createdAt,value
2023-05-10T00:01:53.055Z,100928.09
2023-05-10T00:04:26.777Z,100921.13
2023-05-10T00:06:53.869Z,100921.47
2023-05-10T00:09:27.907Z,100928.03
2023-05-10T00:12:03.031Z,100924.50
2023-05-10T00:14:36.572Z,100925.63
2023-05-10T00:19:55.262Z,100919.38
2023-05-10T00:22:29.711Z,100922.44
2023-05-10T00:24:59.724Z,100915.06
2023-05-10T00:27:33.697Z,100919.72
2023-05-10T00:30:07.790Z,100920.13
2023-05-10T00:32:38.571Z,100914.72
2023-05-10T00:35:07.017Z,100916.72
2023-05-10T00:37:46.167Z,100912.78
2023-05-10T00:40:16.783Z,100912.41
2023-05-10T00:45:34.473Z,100919.06
2023-05-10T00:51:29.068Z,100921.41
2023-05-10T00:53:59.826Z,100915.19
2023-05-10T00:56:32.017Z,100918.72
2023-05-10T00:59:02.096Z,100917.13
2023-05-10T01:01:53.398Z,100917.91
2023-05-10T01:04:26.534Z,100921.78
2023-05-10T01:06:57.524Z,100917.13
2023-05-10T01:09:32.794Z,100919.06
2023-05-10T01:12:04.101Z,100919.84
2023-05-10T01:14:38.453Z,100925.63
2023-05-10T01:17:10.892Z,100925.63
2023-05-10T01:19:46.381Z,100929.16
2023-05-10T01:22:20.907Z,100919.44
2023-05-10T01:25:22.555Z,100926.34
2023-05-10T01:28:10.683Z,100924.78
2023-05-10T01:31:05.388Z,100913.16
2023-05-10T01:33:58.975Z,100924.38
2023-05-10T01:36:32.593Z,100917.78
2023-05-10T01:39:25.318Z,100924.03
2023-05-10T01:42:05.586Z,100927.94
2023-05-10T01:45:15.794Z,100923.34
2023-05-10T01:47:54.171Z,100926.50
2023-05-10T01:50:35.430Z,100929.22
2023-05-10T01:53:10.741Z,100925.31
2023-05-10T01:55:56.176Z,100931.63
2023-05-10T01:58:35.346Z,100921.91
2023-05-10T02:01:22.927Z,100930.41
2023-05-10T02:06:49.000Z,100924.13
2023-05-10T02:09:43.489Z,100926.84
2023-05-10T02:12:10.847Z,100937.34
2023-05-10T02:14:40.199Z,100937.72
2023-05-10T02:17:09.621Z,100927.56
2023-05-10T02:19:39.502Z,100929.91
2023-05-10T02:22:10.777Z,100934.19
2023-05-10T02:24:41.522Z,100936.53
2023-05-10T02:27:20.412Z,100933.84
2023-05-10T02:30:14.355Z,100944.28
2023-05-10T02:33:04.646Z,100940.72
2023-05-10T02:35:36.945Z,100943.44
2023-05-10T02:38:08.308Z,100943.78
2023-05-10T02:40:39.466Z,100951.59
2023-05-10T02:43:10.248Z,100952.00
2023-05-10T02:45:56.768Z,100963.63
2023-05-10T02:48:31.019Z,100960.56
2023-05-10T02:51:06.021Z,100964.06
2023-05-10T02:53:51.985Z,100953.59
2023-05-10T02:56:47.043Z,100957.44
2023-05-10T02:59:26.236Z,100955.06
2023-05-10T03:01:53.707Z,100965.44
2023-05-10T03:04:22.089Z,100967.28
2023-05-10T03:06:56.159Z,100970.75
2023-05-10T03:09:29.841Z,100969.53
2023-05-10T03:12:40.787Z,100972.25
2023-05-10T03:15:42.230Z,100965.63
2023-05-10T03:18:12.769Z,100968.28
2023-05-10T03:20:54.012Z,100965.91
2023-05-10T03:23:47.868Z,100973.25
2023-05-10T03:26:38.592Z,100972.81
2023-05-10T03:29:11.003Z,100980.19
2023-05-10T03:31:37.478Z,100978.25
2023-05-10T03:34:03.836Z,100980.97
2023-05-10T03:36:30.431Z,100977.06
2023-05-10T03:38:57.037Z,100980.91
2023-05-10T03:41:30.033Z,100977.06
2023-05-10T03:44:09.281Z,100975.91
2023-05-10T03:46:37.257Z,100981.78
2023-05-10T03:49:05.806Z,100965.09
2023-05-10T03:51:53.108Z,100972.47
2023-05-10T03:54:26.980Z,100980.25
2023-05-10T03:56:56.870Z,100979.84
2023-05-10T03:59:28.090Z,100978.66
2023-05-10T04:01:56.960Z,100979.06
2023-05-10T04:04:25.839Z,100977.13
2023-05-10T04:07:13.673Z,100982.19
2023-05-10T04:09:43.623Z,100979.47
2023-05-10T04:12:13.544Z,100982.56
2023-05-10T04:14:41.525Z,100991.09
2023-05-10T04:17:15.495Z,100987.63
2023-05-10T04:19:49.224Z,100990.34
2023-05-10T04:22:20.165Z,100988.41
2023-05-10T04:25:07.457Z,100980.47
2023-05-10T04:27:35.802Z,100984.78
2023-05-10T04:30:03.736Z,100991.75
2023-05-10T04:32:37.584Z,100984.38
2023-05-10T04:35:15.899Z,100980.91
2023-05-10T04:37:47.294Z,100990.63
2023-05-10T04:40:19.171Z,100987.91
2023-05-10T04:42:46.703Z,100989.91
2023-05-10T04:45:16.914Z,100987.97
2023-05-10T04:48:00.229Z,100987.63
2023-05-10T04:50:47.324Z,100996.19
2023-05-10T04:53:16.070Z,100994.31
2023-05-10T04:55:46.481Z,101001.69
2023-05-10T04:58:16.713Z,101007.94
2023-05-10T05:00:48.434Z,101008.41
2023-05-10T05:03:15.893Z,101008.81
2023-05-10T05:06:06.098Z,101006.88
2023-05-10T05:08:33.163Z,101011.59
2023-05-10T05:11:01.188Z,101012.84
2023-05-10T05:13:28.278Z,101016.03
2023-05-10T05:15:58.336Z,101013.38
2023-05-10T05:18:25.504Z,101017.63
2023-05-10T05:20:55.768Z,101024.59
2023-05-10T05:23:27.240Z,101022.22
2023-05-10T05:25:56.254Z,101026.88
2023-05-10T05:28:26.371Z,101031.16
2023-05-10T05:31:11.164Z,101036.22
2023-05-10T05:33:39.601Z,101035.09
2023-05-10T05:36:23.979Z,101038.22
2023-05-10T05:38:55.256Z,101039.00
2023-05-10T05:41:24.120Z,101042.88
2023-05-10T05:43:53.926Z,101031.56
2023-05-10T05:46:27.882Z,101038.56
2023-05-10T05:48:58.594Z,101044.00
2023-05-10T05:51:27.465Z,101041.72
2023-05-10T05:53:59.372Z,101042.94
2023-05-10T05:56:33.310Z,101051.16
2023-05-10T05:59:00.611Z,101048.09
2023-05-10T06:01:31.004Z,101058.56
2023-05-10T06:04:04.821Z,101053.50
2023-05-10T06:06:38.485Z,101060.78
2023-05-10T06:09:08.811Z,101059.94
2023-05-10T06:11:35.983Z,101068.88
2023-05-10T06:14:08.808Z,101073.94
2023-05-10T06:17:07.842Z,101070.38
2023-05-10T06:19:35.265Z,101075.88
2023-05-10T06:22:06.993Z,101071.59
2023-05-10T06:24:34.922Z,101078.53
2023-05-10T06:27:01.745Z,101082.09
2023-05-10T06:29:31.982Z,101076.38
2023-05-10T06:32:27.030Z,101078.00
2023-05-10T06:34:53.445Z,101073.44
2023-05-10T06:37:19.884Z,101075.50
2023-05-10T06:39:46.337Z,101077.84
2023-05-10T06:42:12.862Z,101085.69
2023-05-10T06:44:39.344Z,101085.13
2023-05-10T06:47:05.760Z,101088.25
2023-05-10T06:49:32.329Z,101087.94
2023-05-10T06:51:58.843Z,101093.44
2023-05-10T06:54:25.337Z,101093.09
2023-05-10T06:56:51.784Z,101094.22
2023-05-10T06:59:20.148Z,101097.34
2023-05-10T07:01:46.679Z,101104.00
2023-05-10T07:04:14.036Z,101109.09
2023-05-10T07:06:40.502Z,101099.78
2023-05-10T07:09:06.957Z,101110.28
2023-05-10T07:11:33.400Z,101110.22
2023-05-10T07:14:00.845Z,101112.94
2023-05-10T07:16:27.540Z,101118.81
2023-05-10T07:18:54.535Z,101119.38
2023-05-10T07:21:21.064Z,101115.91
2023-05-10T07:23:47.725Z,101115.13
2023-05-10T07:26:16.038Z,101119.78
2023-05-10T07:28:43.046Z,101123.56
2023-05-10T07:31:09.808Z,101130.59
2023-05-10T07:33:36.506Z,101135.69
2023-05-10T07:36:03.029Z,101133.31
2023-05-10T07:38:29.469Z,101136.56
2023-05-10T07:40:55.861Z,101137.53
2023-05-10T07:43:26.332Z,101141.59
2023-05-10T07:45:54.708Z,101138.22
2023-05-10T07:48:22.717Z,101142.94
2023-05-10T07:50:49.156Z,101146.19
2023-05-10T07:53:15.966Z,101143.47
2023-05-10T07:55:42.535Z,101151.00
2023-05-10T07:58:09.110Z,101147.09
2023-05-10T08:00:35.762Z,101147.91
2023-05-10T08:03:02.377Z,101148.28
2023-05-10T08:05:29.060Z,101156.81
2023-05-10T08:07:55.492Z,101156.03
2023-05-10T08:10:22.198Z,101164.91
2023-05-10T08:12:48.631Z,101166.38
2023-05-10T08:15:15.318Z,101167.47
2023-05-10T08:17:42.089Z,101174.13
2023-05-10T08:20:08.961Z,101168.31
2023-05-10T08:22:35.629Z,101179.94
2023-05-10T08:25:02.129Z,101177.63
2023-05-10T08:27:28.514Z,101180.03
2023-05-10T08:29:54.909Z,101175.50
2023-05-10T08:32:21.326Z,101175.66
2023-05-10T08:34:47.763Z,101183.88
2023-05-10T08:37:14.580Z,101179.19
2023-05-10T08:39:41.334Z,101192.72
2023-05-10T08:42:10.189Z,101196.63
2023-05-10T08:44:37.668Z,101196.34
2023-05-10T08:47:07.687Z,101201.47
2023-05-10T08:49:35.117Z,101201.88
2023-05-10T08:52:05.348Z,101201.88
2023-05-10T08:54:35.552Z,101208.53
2023-05-10T08:57:02.458Z,101206.22
2023-05-10T08:59:29.357Z,101207.50
2023-05-10T09:01:58.903Z,101205.72
2023-05-10T09:04:25.755Z,101214.03
2023-05-10T09:06:52.423Z,101205.63
2023-05-10T09:09:20.471Z,101209.44
2023-05-10T09:11:47.182Z,101202.16
2023-05-10T09:14:14.081Z,101209.84
2023-05-10T09:16:41.205Z,101204.22
2023-05-10T09:19:09.342Z,101213.41
2023-05-10T09:21:39.317Z,101208.44
2023-05-10T09:24:07.581Z,101202.88
2023-05-10T09:26:34.248Z,101215.53
2023-05-10T09:29:01.530Z,101215.28
2023-05-10T09:31:55.717Z,101209.56
2023-05-10T09:34:30.960Z,101222.59
2023-05-10T09:37:02.023Z,101211.34
2023-05-10T09:39:35.861Z,101216.03
2023-05-10T09:42:10.506Z,101227.34
2023-05-10T09:44:38.980Z,101223.06
2023-05-10T09:47:05.615Z,101230.50
2023-05-10T09:49:35.765Z,101230.50
2023-05-10T09:52:09.003Z,101236.00
2023-05-10T09:54:35.644Z,101236.78
2023-05-10T09:57:02.825Z,101236.00
2023-05-10T09:59:30.340Z,101246.91
2023-05-10T10:01:58.842Z,101247.22
2023-05-10T10:04:25.871Z,101248.78
2023-05-10T10:07:03.692Z,101247.53
2023-05-10T10:09:30.860Z,101244.38
2023-05-10T10:11:57.804Z,101247.81
2023-05-10T10:14:25.264Z,101255.94
2023-05-10T10:17:05.924Z,101241.53
2023-05-10T10:19:35.229Z,101249.81
2023-05-10T10:22:01.913Z,101250.25
2023-05-10T10:24:28.479Z,101248.78
2023-05-10T10:27:03.472Z,101255.81
2023-05-10T10:29:32.918Z,101253.03
2023-05-10T10:32:13.225Z,101252.25
2023-05-10T10:34:40.872Z,101263.13
2023-05-10T10:37:07.650Z,101261.56
2023-05-10T10:39:34.127Z,101264.31
2023-05-10T10:42:00.936Z,101262.38
2023-05-10T10:44:34.745Z,101259.16
2023-05-10T10:47:14.067Z,101259.56
2023-05-10T10:50:09.337Z,101259.16
2023-05-10T10:52:40.152Z,101259.91
2023-05-10T10:55:10.326Z,101260.38
2023-05-10T10:57:48.797Z,101260.78
2023-05-10T11:00:28.870Z,101265.16
2023-05-10T11:03:00.814Z,101263.63
2023-05-10T11:05:36.469Z,101264.06
2023-05-10T11:08:28.902Z,101263.97
2023-05-10T11:11:01.370Z,101264.28
2023-05-10T11:13:42.813Z,101268.09
2023-05-10T11:16:25.902Z,101275.13
2023-05-10T11:18:59.144Z,101274.34
2023-05-10T11:21:25.708Z,101274.78
2023-05-10T11:23:58.460Z,101277.16
2023-05-10T11:26:36.269Z,101269.75
2023-05-10T11:29:03.377Z,101274.91
2023-05-10T11:31:30.427Z,101273.81
2023-05-10T11:33:59.100Z,101268.00
2023-05-10T11:36:36.098Z,101273.16
2023-05-10T11:39:03.971Z,101275.91
2023-05-10T11:41:31.799Z,101271.28
2023-05-10T11:43:59.438Z,101272.47
2023-05-10T11:46:27.976Z,101272.06
2023-05-10T11:48:58.670Z,101276.34
2023-05-10T11:51:26.212Z,101273.59
2023-05-10T11:53:55.254Z,101271.28
2023-05-10T11:56:22.051Z,101271.66
2023-05-10T11:58:55.096Z,101278.69
2023-05-10T12:01:22.192Z,101278.28
2023-05-10T12:03:49.485Z,101277.50
2023-05-10T12:06:17.245Z,101277.88
2023-05-10T12:08:48.653Z,101281.78
2023-05-10T12:11:16.552Z,101275.91
2023-05-10T12:13:44.058Z,101274.78
2023-05-10T12:16:21.581Z,101274.78
2023-05-10T12:18:52.828Z,101275.56
2023-05-10T12:21:21.050Z,101281.38
2023-05-10T12:23:49.601Z,101280.94
2023-05-10T12:26:16.349Z,101278.59
2023-05-10T12:28:42.939Z,101283.25
2023-05-10T12:31:09.950Z,101280.47
2023-05-10T12:33:43.541Z,101288.66
2023-05-10T12:36:14.731Z,101281.53
2023-05-10T12:38:43.983Z,101278.28
2023-05-10T12:41:12.416Z,101269.53
2023-05-10T12:43:39.858Z,101273.69
2023-05-10T12:46:17.738Z,101278.66
2023-05-10T12:48:45.441Z,101274.19
2023-05-10T12:51:14.036Z,101279.66
2023-05-10T12:53:43.390Z,101283.28
2023-05-10T12:56:11.142Z,101286.53
2023-05-10T12:58:37.562Z,101279.59
2023-05-10T13:01:05.067Z,101291.88
2023-05-10T13:03:31.597Z,101290.47
2023-05-10T13:05:58.021Z,101298.38
2023-05-10T13:08:24.679Z,101294.91
2023-05-10T13:10:51.108Z,101299.31
2023-05-10T13:13:18.845Z,101302.53
2023-05-10T13:15:45.380Z,101311.19
2023-05-10T13:18:12.166Z,101314.25
2023-05-10T13:20:38.829Z,101317.72
2023-05-10T13:23:05.452Z,101324.25
2023-05-10T13:25:31.837Z,101321.69
2023-05-10T13:27:58.450Z,101325.41
2023-05-10T13:30:25.135Z,101334.63
2023-05-10T13:32:51.920Z,101329.03
2023-05-10T13:35:18.856Z,101337.47
2023-05-10T13:37:45.373Z,101341.28
2023-05-10T13:40:12.057Z,101347.56
2023-05-10T13:42:38.547Z,101348.09
2023-05-10T13:45:05.561Z,101352.13
2023-05-10T13:47:32.166Z,101351.22
2023-05-10T13:49:59.366Z,101351.59
2023-05-10T13:52:26.084Z,101348.72
2023-05-10T13:54:53.252Z,101352.19
2023-05-10T13:57:19.620Z,101350.53
2023-05-10T13:59:45.991Z,101347.78
2023-05-10T14:02:14.203Z,101352.34
2023-05-10T14:04:40.638Z,101349.94
2023-05-10T14:07:07.026Z,101342.03
2023-05-10T14:09:33.350Z,101348.59
2023-05-10T14:11:59.773Z,101348.00
2023-05-10T14:14:26.184Z,101343.66
2023-05-10T14:16:52.978Z,101342.50
2023-05-10T14:19:19.422Z,101348.69
2023-05-10T14:21:45.908Z,101357.16
2023-05-10T14:24:12.939Z,101358.28
2023-05-10T14:26:39.535Z,101355.50
2023-05-10T14:29:06.100Z,101356.97
2023-05-10T14:31:32.978Z,101355.41
2023-05-10T14:34:00.132Z,101356.97
2023-05-10T14:36:26.766Z,101355.75
2023-05-10T14:38:53.454Z,101353.09
2023-05-10T14:41:19.880Z,101358.94
2023-05-10T14:43:46.852Z,101355.16
2023-05-10T14:46:13.561Z,101351.66
2023-05-10T14:48:40.115Z,101349.75
2023-05-10T14:51:07.607Z,101358.03
2023-05-10T14:53:34.423Z,101353.09
2023-05-10T14:56:02.273Z,101347.69
2023-05-10T14:58:29.027Z,101349.72
2023-05-10T15:00:55.680Z,101356.53
2023-05-10T15:03:23.584Z,101360.56
2023-05-10T15:05:50.544Z,101352.50
2023-05-10T15:08:17.225Z,101364.28
2023-05-10T15:10:43.849Z,101354.59
2023-05-10T15:13:10.454Z,101352.69
2023-05-10T15:15:37.306Z,101352.81
2023-05-10T15:18:03.991Z,101347.13
2023-05-10T15:20:30.501Z,101356.63
2023-05-10T15:22:57.183Z,101350.50
2023-05-10T15:25:24.831Z,101353.81
2023-05-10T15:27:51.194Z,101348.13
2023-05-10T15:30:17.802Z,101353.34
2023-05-10T15:32:44.359Z,101352.19
2023-05-10T15:35:11.610Z,101353.38
2023-05-10T15:37:40.863Z,101359.94
2023-05-10T15:40:07.703Z,101356.09
2023-05-10T15:42:34.190Z,101357.50
2023-05-10T15:45:00.684Z,101357.88
2023-05-10T15:47:28.453Z,101354.81
2023-05-10T15:49:54.856Z,101362.34
2023-05-10T15:52:21.598Z,101363.59
2023-05-10T15:54:48.214Z,101364.78
2023-05-10T15:57:14.587Z,101365.22
2023-05-10T15:59:41.730Z,101369.53
2023-05-10T16:02:11.025Z,101368.44
2023-05-10T16:04:37.896Z,101373.53
2023-05-10T16:07:04.309Z,101374.69
2023-05-10T16:09:30.973Z,101375.06
2023-05-10T16:11:57.419Z,101378.22
2023-05-10T16:14:24.858Z,101378.53
2023-05-10T16:16:51.812Z,101376.59
2023-05-10T16:19:18.524Z,101383.19
2023-05-10T16:21:45.194Z,101381.59
2023-05-10T16:24:11.626Z,101385.84
2023-05-10T16:26:41.023Z,101383.50
2023-05-10T16:29:08.879Z,101381.09
2023-05-10T16:31:35.511Z,101379.94
2023-05-10T16:34:02.283Z,101390.03
2023-05-10T16:36:29.624Z,101397.44
2023-05-10T16:38:56.651Z,101381.09
2023-05-10T16:41:23.208Z,101389.31
2023-05-10T16:43:50.266Z,101385.47
2023-05-10T16:46:16.748Z,101381.94
2023-05-10T16:48:43.424Z,101389.78
2023-05-10T16:51:09.931Z,101385.47
2023-05-10T16:53:36.394Z,101386.50
2023-05-10T16:56:03.573Z,101390.25
2023-05-10T16:58:30.035Z,101388.31
2023-05-10T17:00:56.520Z,101395.22
2023-05-10T17:03:23.495Z,101387.84
2023-05-10T17:05:50.089Z,101391.03
2023-05-10T17:08:16.932Z,101386.03
2023-05-10T17:10:43.439Z,101388.47
2023-05-10T17:13:10.667Z,101387.31
2023-05-10T17:15:38.237Z,101388.44
2023-05-10T17:18:05.085Z,101389.97
2023-05-10T17:20:31.642Z,101391.94
2023-05-10T17:22:58.140Z,101407.91
2023-05-10T17:25:24.764Z,101409.78
2023-05-10T17:27:51.326Z,101411.56
2023-05-10T17:30:22.603Z,101408.03
2023-05-10T17:32:49.276Z,101411.59
2023-05-10T17:35:16.153Z,101416.56
2023-05-10T17:37:44.231Z,101417.72
2023-05-10T17:40:11.383Z,101416.13
2023-05-10T17:42:37.977Z,101419.19
2023-05-10T17:45:04.841Z,101432.03
2023-05-10T17:47:31.674Z,101437.94
2023-05-10T17:49:58.158Z,101434.44
2023-05-10T17:52:24.600Z,101427.81
2023-05-10T17:54:51.238Z,101446.94
2023-05-10T17:57:18.317Z,101443.84
2023-05-10T17:59:44.761Z,101439.94
2023-05-10T18:02:11.121Z,101446.53
2023-05-10T18:04:40.058Z,101444.59
2023-05-10T18:07:07.865Z,101446.47
2023-05-10T18:09:34.383Z,101442.84
2023-05-10T18:12:03.138Z,101439.28
2023-05-10T18:14:39.981Z,101443.16
2023-05-10T18:17:08.386Z,101440.38
2023-05-10T18:19:34.826Z,101440.75
2023-05-10T18:22:01.271Z,101447.72
2023-05-10T18:24:38.481Z,101447.22
2023-05-10T18:27:06.759Z,101447.13
2023-05-10T18:29:33.270Z,101446.63
2023-05-10T18:31:59.788Z,101447.75
2023-05-10T18:34:26.350Z,101445.69
2023-05-10T18:36:53.201Z,101450.69
2023-05-10T18:39:19.743Z,101445.53
2023-05-10T18:41:46.347Z,101448.16
2023-05-10T18:44:12.858Z,101445.38
2023-05-10T18:46:39.487Z,101452.28
2023-05-10T18:49:08.447Z,101454.25
2023-05-10T18:51:35.046Z,101456.56
2023-05-10T18:54:02.002Z,101460.06
2023-05-10T18:56:28.600Z,101456.91
2023-05-10T18:58:55.339Z,101456.88
2023-05-10T19:01:22.158Z,101456.00
2023-05-10T19:03:48.781Z,101462.94
2023-05-10T19:06:15.310Z,101463.66
2023-05-10T19:08:41.835Z,101458.94
2023-05-10T19:11:12.128Z,101466.66
2023-05-10T19:13:38.923Z,101466.59
2023-05-10T19:16:10.549Z,101472.34
2023-05-10T19:18:39.633Z,101469.50
2023-05-10T19:21:07.666Z,101475.25
2023-05-10T19:23:34.945Z,101473.59
2023-05-10T19:26:02.402Z,101472.75
2023-05-10T19:28:29.179Z,101478.50
2023-05-10T19:30:56.048Z,101476.50
2023-05-10T19:33:23.299Z,101481.88
2023-05-10T19:35:52.468Z,101483.72
2023-05-10T19:38:26.036Z,101490.28
2023-05-10T19:40:59.348Z,101494.50
2023-05-10T19:43:27.618Z,101495.25
2023-05-10T19:45:55.266Z,101497.88
2023-05-10T19:48:21.937Z,101497.03
2023-05-10T19:50:48.389Z,101500.81
2023-05-10T19:53:14.899Z,101495.75
2023-05-10T19:55:41.771Z,101494.97
2023-05-10T19:58:08.543Z,101487.50
2023-05-10T20:00:35.615Z,101496.69
2023-05-10T20:03:02.719Z,101493.09
2023-05-10T20:05:29.269Z,101498.53
2023-05-10T20:08:01.317Z,101503.56
2023-05-10T20:10:28.306Z,101504.63
2023-05-10T20:12:56.613Z,101511.59
2023-05-10T20:15:23.818Z,101502.13
2023-05-10T20:17:51.311Z,101513.38
2023-05-10T20:20:18.365Z,101503.22
2023-05-10T20:22:45.368Z,101505.13
2023-05-10T20:25:12.070Z,101510.94
2023-05-10T20:27:38.863Z,101511.94
2023-05-10T20:30:06.542Z,101516.13
2023-05-10T20:32:34.206Z,101517.03
2023-05-10T20:35:02.826Z,101509.22
2023-05-10T20:40:12.756Z,101515.78
2023-05-10T20:42:39.273Z,101516.56
2023-05-10T20:45:06.414Z,101527.38
2023-05-10T20:47:33.292Z,101526.59
2023-05-10T20:49:59.890Z,101523.53
2023-05-10T20:52:26.385Z,101520.88
2023-05-10T20:54:52.837Z,101518.56
2023-05-10T20:57:20.479Z,101522.88
2023-05-10T20:59:47.027Z,101529.53
2023-05-10T21:02:13.598Z,101537.00
2023-05-10T21:04:40.526Z,101524.56
2023-05-10T21:07:07.243Z,101515.94
2023-05-10T21:09:35.971Z,101518.66
2023-05-10T21:12:05.725Z,101516.28
2023-05-10T21:14:32.356Z,101518.16
2023-05-10T21:16:59.091Z,101518.16
2023-05-10T21:19:25.523Z,101523.94
2023-05-10T21:21:52.082Z,101524.28
2023-05-10T21:24:19.244Z,101526.25
2023-05-10T21:26:46.581Z,101528.97
2023-05-10T21:29:13.224Z,101521.16
2023-05-10T21:31:39.785Z,101511.44
2023-05-10T21:34:07.014Z,101511.78
2023-05-10T21:36:33.949Z,101513.25
2023-05-10T21:39:00.617Z,101513.19
2023-05-10T21:41:27.194Z,101511.53
2023-05-10T21:43:53.727Z,101514.63
2023-05-10T21:46:20.327Z,101513.75
2023-05-10T21:48:46.958Z,101509.00
2023-05-10T21:51:13.562Z,101514.00
2023-05-10T21:53:40.665Z,101512.44
2023-05-10T21:56:10.464Z,101521.38
2023-05-10T21:58:37.039Z,101513.59
2023-05-10T22:01:03.627Z,101509.72
2023-05-10T22:03:30.386Z,101513.22
2023-05-10T22:05:56.998Z,101512.44
2023-05-10T22:08:24.069Z,101519.03
2023-05-10T22:10:52.078Z,101513.50
2023-05-10T22:13:18.870Z,101521.19
2023-05-10T22:15:45.469Z,101518.47
2023-05-10T22:18:12.061Z,101522.25
2023-05-10T22:20:38.740Z,101529.97
2023-05-10T22:23:05.596Z,101526.09
2023-05-10T22:25:32.230Z,101529.19
2023-05-10T22:27:58.725Z,101529.53
2023-05-10T22:30:25.909Z,101521.75
2023-05-10T22:32:52.507Z,101524.81
2023-05-10T22:35:19.329Z,101520.06
2023-05-10T22:37:47.516Z,101523.13
2023-05-10T22:40:13.948Z,101525.78
2023-05-10T22:42:40.807Z,101534.97
2023-05-10T22:45:08.349Z,101528.31
2023-05-10T22:47:35.029Z,101528.31
2023-05-10T22:50:03.821Z,101522.09
2023-05-10T22:52:30.876Z,101525.25
2023-05-10T22:54:57.505Z,101519.91
2023-05-10T22:57:24.765Z,101522.63
2023-05-10T22:59:52.161Z,101526.56
2023-05-10T23:02:18.742Z,101531.22
2023-05-10T23:04:45.939Z,101533.13
2023-05-10T23:07:12.481Z,101535.09
2023-05-10T23:09:39.068Z,101530.78
2023-05-10T23:12:05.795Z,101532.63
2023-05-10T23:14:32.495Z,101538.41
2023-05-10T23:16:59.149Z,101537.94
2023-05-10T23:19:25.893Z,101534.78
2023-05-10T23:21:52.490Z,101535.53
2023-05-10T23:24:19.448Z,101530.44
2023-05-10T23:26:46.697Z,101545.16
2023-05-10T23:29:13.199Z,101542.44
2023-05-10T23:31:45.238Z,101556.00
2023-05-10T23:34:12.299Z,101546.66
2023-05-10T23:36:39.341Z,101542.00
2023-05-10T23:39:06.918Z,101540.84
2023-05-10T23:41:33.654Z,101546.53
2023-05-10T23:44:01.657Z,101550.41
2023-05-10T23:46:28.899Z,101546.91
2023-05-10T23:48:56.086Z,101546.53
2023-05-10T23:51:22.575Z,101550.84
2023-05-10T23:53:49.190Z,101551.28
2023-05-10T23:56:15.905Z,101549.38
2023-05-10T23:58:42.899Z,101553.13
